Time;durP1;ratioP1;P1;durP2;ratioP2;P2;SDS_P1;SDS_P2;PMS_P1;PMS_P2;Temp;Humidity;BMP_temperature;BMP_pressure;BME280_temperature;BME280_humidity;BME280_pressure;Samples;Min_cycle;Max_cycle;Signal;HPM_P1;HPM_P2
2023/05/14 00:00:42;;;;;;;5.55;3.58;;;15.10;99.90;;;;;;5091659;28;20028;-80
2023/05/14 00:03:09;;;;;;;5.57;3.60;;;15.00;99.90;;;;;;5092100;28;20024;-80
2023/05/14 00:05:34;;;;;;;3.83;3.00;;;14.90;99.90;;;;;;5091102;28;20036;-80
2023/05/14 00:08:00;;;;;;;4.78;3.85;;;14.80;99.90;;;;;;5091503;28;20354;-80
2023/05/14 00:10:26;;;;;;;8.52;4.68;;;14.70;99.90;;;;;;5092926;28;20047;-80
2023/05/14 00:12:52;;;;;;;7.43;4.90;;;14.70;99.90;;;;;;5092087;28;20032;-80
2023/05/14 00:15:17;;;;;;;6.50;4.60;;;14.60;99.90;;;;;;5091720;28;20031;-80
2023/05/14 00:17:43;;;;;;;6.22;4.70;;;14.60;99.90;;;;;;5105004;28;20099;-80
2023/05/14 00:20:11;;;;;;;5.78;4.68;;;14.60;99.90;;;;;;5111039;28;20032;-80
2023/05/14 00:22:37;;;;;;;7.72;4.75;;;14.60;99.90;;;;;;5091126;28;20027;-80
2023/05/14 00:25:03;;;;;;;6.97;4.47;;;14.60;99.90;;;;;;5094511;28;20039;-80
2023/05/14 00:27:28;;;;;;;7.13;4.93;;;14.60;99.90;;;;;;5095597;28;20105;-78
2023/05/14 00:29:54;;;;;;;5.35;4.32;;;14.60;99.90;;;;;;5094880;28;20062;-80
2023/05/14 00:32:20;;;;;;;6.13;4.63;;;14.70;99.90;;;;;;5095783;28;20077;-80
2023/05/14 00:34:46;;;;;;;6.65;4.50;;;14.70;99.90;;;;;;5096257;28;20526;-80
2023/05/14 00:37:11;;;;;;;5.45;4.28;;;14.70;99.90;;;;;;5095567;28;20031;-80
2023/05/14 00:39:37;;;;;;;6.07;4.57;;;14.70;99.90;;;;;;5096151;28;20035;-80
2023/05/14 00:42:02;;;;;;;6.68;5.05;;;14.60;99.90;;;;;;5095868;28;20024;-81
2023/05/14 00:44:28;;;;;;;6.30;4.47;;;14.70;99.90;;;;;;5095532;28;20494;-80
2023/05/14 00:46:54;;;;;;;7.60;4.70;;;14.60;99.90;;;;;;5096244;28;20035;-80
2023/05/14 00:49:20;;;;;;;9.05;5.25;;;14.60;99.90;;;;;;5095657;28;20039;-80
2023/05/14 00:51:46;;;;;;;5.20;4.70;;;14.60;99.90;;;;;;5096347;28;20020;-80
2023/05/14 00:54:14;;;;;;;6.50;4.80;;;14.60;99.90;;;;;;5095199;28;20038;-80
2023/05/14 00:56:40;;;;;;;5.65;4.50;;;14.60;99.90;;;;;;5095953;28;20024;-80
2023/05/14 00:59:06;;;;;;;5.93;4.68;;;14.60;99.90;;;;;;5095190;28;20025;-80
2023/05/14 01:01:32;;;;;;;6.25;4.70;;;14.60;99.90;;;;;;5095181;28;20032;-79
2023/05/14 01:03:57;;;;;;;7.57;4.57;;;14.60;99.90;;;;;;5095083;28;20084;-80
2023/05/14 01:06:43;;;;;;;6.72;4.50;;;14.60;99.90;;;;;;5095100;28;20035;-80
2023/05/14 01:09:24;;;;;;;7.15;4.90;;;14.60;99.90;;;;;;5096567;28;20028;-80
2023/05/14 01:12:05;;;;;;;5.70;4.78;;;14.60;99.90;;;;;;5094794;28;20031;-81
2023/05/14 01:15:00;;;;;;;5.63;4.30;;;14.60;99.90;;;;;;5096230;28;20056;-79
2023/05/14 01:17:29;;;;;;;7.45;4.38;;;14.60;99.90;;;;;;5095542;28;20381;-80
2023/05/14 01:19:56;;;;;;;5.55;4.38;;;14.60;99.90;;;;;;5094088;28;20112;-80
2023/05/14 01:22:22;;;;;;;8.60;4.60;;;14.60;99.90;;;;;;5094578;28;20115;-79
2023/05/14 01:24:47;;;;;;;6.32;4.32;;;14.60;99.90;;;;;;5095283;28;20052;-80
2023/05/14 01:27:16;;;;;;;5.90;4.18;;;14.60;99.90;;;;;;5095701;28;20093;-80
2023/05/14 01:29:48;;;;;;;6.93;4.35;;;14.60;99.90;;;;;;5095375;28;20058;-79
2023/05/14 01:32:15;;;;;;;6.03;4.20;;;14.60;99.90;;;;;;5095686;28;20098;-79
2023/05/14 01:34:42;;;;;;;5.47;4.22;;;14.60;99.90;;;;;;5093794;28;20024;-79
2023/05/14 01:37:11;;;;;;;5.32;3.33;;;14.60;99.90;;;;;;5093315;28;20024;-80
2023/05/14 01:39:38;;;;;;;5.40;3.85;;;14.60;99.90;;;;;;5094239;28;20024;-79
2023/05/14 01:42:06;;;;;;;7.68;3.58;;;14.60;99.90;;;;;;5097427;28;20048;-78
2023/05/14 01:44:32;;;;;;;4.60;3.60;;;14.60;99.90;;;;;;5094257;28;20052;-79
2023/05/14 01:46:57;;;;;;;3.72;3.13;;;14.60;99.90;;;;;;5093545;28;20468;-79
2023/05/14 01:49:23;;;;;;;6.05;3.50;;;14.50;99.90;;;;;;5094699;28;20028;-79
2023/05/14 01:51:49;;;;;;;6.95;3.78;;;14.50;99.90;;;;;;5093581;28;20526;-80
2023/05/14 01:54:14;;;;;;;5.13;3.20;;;14.50;99.90;;;;;;5094201;28;20120;-79
2023/05/14 01:56:40;;;;;;;3.55;2.92;;;14.50;99.90;;;;;;5094377;28;20028;-79
2023/05/14 01:59:05;;;;;;;5.00;3.13;;;14.40;99.90;;;;;;5093935;28;20028;-79
2023/05/14 02:01:32;;;;;;;3.92;3.35;;;14.40;99.90;;;;;;5093833;28;20555;-79
2023/05/14 02:03:58;;;;;;;4.95;3.60;;;14.50;99.90;;;;;;5093817;28;20141;-79
2023/05/14 02:06:24;;;;;;;3.65;2.85;;;14.50;99.90;;;;;;5094517;28;20036;-79
2023/05/14 02:08:49;;;;;;;4.22;3.30;;;14.50;99.90;;;;;;5093453;28;20020;-79
2023/05/14 02:11:15;;;;;;;5.32;2.83;;;14.40;99.90;;;;;;5093773;28;20024;-80
2023/05/14 02:13:40;;;;;;;3.88;3.05;;;14.40;99.90;;;;;;5093053;28;20065;-79
2023/05/14 02:16:06;;;;;;;3.35;3.03;;;14.40;99.90;;;;;;5093396;28;20469;-79
2023/05/14 02:18:32;;;;;;;4.20;2.97;;;14.40;99.90;;;;;;5093483;28;20054;-79
2023/05/14 02:20:57;;;;;;;4.38;2.63;;;14.30;99.90;;;;;;5093238;28;20035;-79
2023/05/14 02:23:23;;;;;;;3.60;3.00;;;14.30;99.90;;;;;;5093780;28;20030;-80
2023/05/14 02:25:49;;;;;;;3.63;3.00;;;14.30;99.90;;;;;;5092941;28;20036;-79
2023/05/14 02:28:14;;;;;;;5.07;3.28;;;14.30;99.90;;;;;;5093389;28;20035;-80
2023/05/14 02:30:40;;;;;;;3.95;3.08;;;14.30;99.90;;;;;;5093124;28;20074;-80
2023/05/14 02:33:06;;;;;;;4.80;2.88;;;14.30;99.90;;;;;;5093393;28;20372;-80
2023/05/14 02:35:31;;;;;;;4.78;3.30;;;14.30;99.90;;;;;;5093400;28;20024;-80
2023/05/14 02:37:58;;;;;;;4.88;2.50;;;14.20;99.90;;;;;;5093713;28;20024;-80
2023/05/14 02:40:24;;;;;;;4.65;2.78;;;14.20;99.90;;;;;;5093033;28;20048;-80
2023/05/14 02:42:49;;;;;;;4.15;2.90;;;14.20;99.90;;;;;;5092859;28;20028;-80
2023/05/14 02:45:15;;;;;;;4.43;3.00;;;14.10;99.90;;;;;;5093095;28;20020;-80
2023/05/14 02:47:42;;;;;;;3.22;2.65;;;14.20;99.90;;;;;;5092908;28;20115;-80
2023/05/14 02:50:08;;;;;;;4.97;3.20;;;14.10;99.90;;;;;;5093191;28;20031;-80
2023/05/14 02:52:34;;;;;;;4.90;3.10;;;14.10;99.90;;;;;;5094421;28;20035;-80
2023/05/14 02:54:59;;;;;;;4.75;3.38;;;14.10;99.90;;;;;;5092040;28;20032;-80
2023/05/14 02:57:25;;;;;;;4.72;2.67;;;14.10;99.90;;;;;;5094184;28;20031;-80
2023/05/14 02:59:50;;;;;;;3.30;2.95;;;14.00;99.90;;;;;;5094058;28;20517;-80
2023/05/14 03:02:16;;;;;;;3.25;2.63;;;14.00;99.90;;;;;;5092753;28;20483;-80
2023/05/14 03:04:42;;;;;;;4.20;2.60;;;14.00;99.90;;;;;;5093738;28;20024;-80
2023/05/14 03:07:07;;;;;;;4.68;2.53;;;14.00;99.90;;;;;;5093175;28;20032;-80
2023/05/14 03:09:33;;;;;;;3.50;2.70;;;14.00;99.90;;;;;;5092819;28;20411;-80
2023/05/14 03:11:59;;;;;;;3.65;2.40;;;14.00;99.90;;;;;;5092321;28;20016;-80
2023/05/14 03:14:25;;;;;;;4.68;2.67;;;14.00;99.90;;;;;;5093050;28;20111;-80
2023/05/14 03:16:50;;;;;;;3.70;2.70;;;14.00;99.90;;;;;;5092221;28;20079;-79
2023/05/14 03:19:16;;;;;;;4.90;2.45;;;14.00;99.90;;;;;;5093635;28;20028;-79
2023/05/14 03:21:41;;;;;;;2.92;2.33;;;14.00;99.90;;;;;;5092912;28;20033;-79
2023/05/14 03:24:07;;;;;;;2.47;2.25;;;14.10;99.90;;;;;;5093284;28;20103;-80
2023/05/14 03:26:33;;;;;;;3.88;2.50;;;14.00;99.90;;;;;;5092398;28;20032;-79
2023/05/14 03:28:58;;;;;;;4.45;2.60;;;14.00;99.90;;;;;;5093010;28;20091;-79
2023/05/14 03:31:24;;;;;;;4.57;2.47;;;14.00;99.90;;;;;;5093360;28;20525;-80
2023/05/14 03:33:50;;;;;;;5.40;4.13;;;14.00;99.90;;;;;;5091727;28;20028;-79
2023/05/14 03:36:15;;;;;;;4.78;3.42;;;13.90;99.90;;;;;;5092101;28;20031;-79
2023/05/14 03:38:41;;;;;;;3.72;2.38;;;13.90;99.90;;;;;;5092659;28;20035;-79
2023/05/14 03:41:07;;;;;;;2.42;2.20;;;13.90;99.90;;;;;;5091963;28;20139;-79
2023/05/14 03:43:33;;;;;;;4.43;2.80;;;13.90;99.90;;;;;;5092309;28;20053;-79
2023/05/14 03:45:59;;;;;;;4.60;2.30;;;13.90;99.90;;;;;;5091329;28;20047;-80
2023/05/14 03:48:25;;;;;;;3.28;2.60;;;13.80;99.90;;;;;;5092321;28;20052;-80
2023/05/14 03:50:51;;;;;;;4.13;2.63;;;13.80;99.90;;;;;;5091601;28;20036;-79
2023/05/14 03:53:16;;;;;;;2.92;2.38;;;13.80;99.90;;;;;;5092656;28;20046;-79
2023/05/14 03:55:42;;;;;;;6.32;3.25;;;13.80;99.90;;;;;;5091567;28;20034;-79
2023/05/14 03:58:12;;;;;;;4.30;2.83;;;13.70;99.90;;;;;;5091992;28;20107;-80
2023/05/14 04:00:40;;;;;;;3.13;2.72;;;13.60;99.90;;;;;;5091759;28;20036;-81
2023/05/14 04:03:06;;;;;;;6.57;2.50;;;13.60;99.90;;;;;;5092464;28;20548;-80
2023/05/14 04:05:31;;;;;;;3.10;2.60;;;13.50;99.90;;;;;;5091455;28;20028;-80
2023/05/14 04:07:57;;;;;;;3.28;2.45;;;13.50;99.90;;;;;;5091205;28;20480;-80
2023/05/14 04:10:23;;;;;;;2.70;2.38;;;13.50;99.90;;;;;;5091046;28;20034;-80
2023/05/14 04:12:48;;;;;;;3.70;2.65;;;13.40;99.90;;;;;;5095705;28;20040;-80
2023/05/14 04:15:14;;;;;;;4.53;2.75;;;13.50;99.90;;;;;;5091835;28;20107;-80
2023/05/14 04:17:40;;;;;;;2.55;2.35;;;13.40;99.90;;;;;;5091627;28;20031;-80
2023/05/14 04:20:06;;;;;;;2.80;2.53;;;13.40;99.90;;;;;;5091346;28;20016;-80
2023/05/14 04:22:32;;;;;;;3.40;2.60;;;13.40;99.90;;;;;;5090362;28;20036;-78
2023/05/14 04:24:57;;;;;;;5.70;2.80;;;13.40;99.90;;;;;;5084572;28;20538;-79
2023/05/14 04:27:23;;;;;;;4.00;2.70;;;13.40;99.90;;;;;;5091222;28;20032;-80
2023/05/14 04:29:49;;;;;;;6.03;2.90;;;13.30;99.90;;;;;;5089658;28;20137;-80
2023/05/14 04:32:15;;;;;;;3.45;2.63;;;13.40;99.90;;;;;;5091649;28;20476;-80
2023/05/14 04:34:41;;;;;;;3.17;2.65;;;13.30;99.90;;;;;;5092140;28;20063;-79
2023/05/14 04:37:06;;;;;;;3.88;2.50;;;13.30;99.90;;;;;;5090578;28;20039;-80
2023/05/14 04:39:32;;;;;;;4.78;3.03;;;13.20;99.90;;;;;;5090459;28;20157;-80
2023/05/14 04:41:58;;;;;;;2.72;2.50;;;13.30;99.90;;;;;;5089754;28;20027;-79
2023/05/14 04:44:23;;;;;;;3.70;2.88;;;13.30;99.90;;;;;;5090807;28;20020;-80
2023/05/14 04:46:49;;;;;;;2.95;2.63;;;13.30;99.90;;;;;;5090386;28;20445;-80
2023/05/14 04:49:14;;;;;;;3.63;2.70;;;13.30;99.90;;;;;;5090438;28;20020;-81
2023/05/14 04:51:40;;;;;;;4.55;3.10;;;13.30;99.90;;;;;;5090136;28;20028;-81
2023/05/14 04:54:05;;;;;;;6.45;2.78;;;13.30;99.90;;;;;;5091629;28;20032;-81
2023/05/14 04:56:31;;;;;;;4.30;2.80;;;13.20;99.90;;;;;;5091520;28;20038;-81
2023/05/14 04:58:57;;;;;;;4.47;2.92;;;13.20;99.90;;;;;;5090461;28;20389;-79
2023/05/14 05:01:22;;;;;;;6.97;3.05;;;13.20;99.90;;;;;;5093589;28;20030;-80
2023/05/14 05:03:48;;;;;;;4.25;3.10;;;13.20;99.90;;;;;;5090418;28;20489;-80
2023/05/14 05:06:13;;;;;;;4.75;3.10;;;13.30;99.90;;;;;;5095410;28;20032;-80
2023/05/14 05:08:40;;;;;;;5.13;3.17;;;13.30;99.90;;;;;;5091551;28;20039;-80
2023/05/14 05:11:06;;;;;;;3.63;2.97;;;13.20;99.90;;;;;;5092876;28;20021;-80
2023/05/14 05:13:31;;;;;;;4.63;2.88;;;13.30;99.90;;;;;;5094240;28;20055;-80
2023/05/14 05:15:57;;;;;;;4.43;2.80;;;13.20;99.90;;;;;;5095386;28;20065;-81
2023/05/14 05:18:23;;;;;;;3.88;3.13;;;13.30;99.90;;;;;;5094863;28;20020;-80
2023/05/14 05:20:48;;;;;;;4.65;3.20;;;13.30;99.90;;;;;;5094209;28;20031;-80
2023/05/14 05:23:14;;;;;;;5.47;3.25;;;13.20;99.90;;;;;;5091706;28;20529;-80
2023/05/14 05:25:40;;;;;;;3.85;3.10;;;13.20;99.90;;;;;;5093556;28;20036;-80
2023/05/14 05:28:05;;;;;;;6.10;3.60;;;13.20;99.90;;;;;;5093058;28;20031;-80
2023/05/14 05:30:31;;;;;;;4.57;3.38;;;13.30;99.90;;;;;;5093301;28;20242;-80
2023/05/14 05:32:57;;;;;;;5.90;3.42;;;13.20;99.90;;;;;;5093589;28;20052;-80
2023/05/14 05:35:22;;;;;;;5.30;3.25;;;13.20;99.90;;;;;;5093871;28;20024;-80
2023/05/14 05:37:48;;;;;;;5.65;3.45;;;13.30;99.90;;;;;;5093168;28;20024;-80
2023/05/14 05:40:14;;;;;;;5.07;3.45;;;13.30;99.90;;;;;;5094479;28;20043;-80
2023/05/14 05:42:40;;;;;;;5.15;3.70;;;13.30;99.90;;;;;;5093960;28;20020;-80
2023/05/14 05:45:06;;;;;;;4.03;2.90;;;13.40;99.90;;;;;;5093644;28;20020;-80
2023/05/14 05:47:32;;;;;;;7.03;3.45;;;13.40;99.90;;;;;;5093924;28;20047;-80
2023/05/14 05:49:58;;;;;;;6.32;3.30;;;13.40;99.90;;;;;;5092822;28;20020;-80
2023/05/14 05:52:24;;;;;;;6.07;3.63;;;13.40;99.90;;;;;;5092858;28;20020;-80
2023/05/14 05:54:49;;;;;;;5.03;3.30;;;13.50;99.90;;;;;;5092608;28;20024;-80
2023/05/14 05:57:15;;;;;;;4.25;3.20;;;13.50;99.90;;;;;;5094061;28;20024;-80
2023/05/14 05:59:40;;;;;;;4.85;3.20;;;13.50;99.90;;;;;;5093356;28;20027;-80
2023/05/14 06:02:06;;;;;;;4.28;3.28;;;13.50;99.90;;;;;;5093273;28;20024;-80
2023/05/14 06:04:31;;;;;;;5.32;3.45;;;13.60;99.90;;;;;;5093278;28;20711;-79
2023/05/14 06:06:57;;;;;;;5.13;3.65;;;13.60;99.90;;;;;;5092838;28;20043;-80
2023/05/14 06:09:23;;;;;;;6.72;3.80;;;13.60;99.90;;;;;;5093412;28;20024;-80
2023/05/14 06:11:48;;;;;;;4.07;3.38;;;13.60;99.90;;;;;;5099229;28;20020;-81
2023/05/14 06:14:14;;;;;;;5.70;3.70;;;13.60;99.90;;;;;;5093469;28;20081;-80
2023/05/14 06:16:40;;;;;;;4.45;3.80;;;13.70;99.90;;;;;;5093642;28;20038;-80
2023/05/14 06:19:07;;;;;;;4.72;3.35;;;13.80;99.90;;;;;;5093199;28;20031;-80
2023/05/14 06:21:32;;;;;;;4.90;3.20;;;13.80;99.90;;;;;;5093325;28;20063;-80
2023/05/14 06:23:58;;;;;;;5.72;3.55;;;13.90;99.90;;;;;;5100099;28;20068;-80
2023/05/14 06:26:24;;;;;;;5.65;3.80;;;13.90;99.90;;;;;;5092711;28;20480;-79
2023/05/14 06:28:50;;;;;;;6.13;3.50;;;13.90;99.90;;;;;;5092682;28;20135;-80
2023/05/14 06:31:16;;;;;;;6.55;3.72;;;13.90;99.90;;;;;;5093389;28;20576;-79
2023/05/14 06:33:41;;;;;;;4.65;3.38;;;14.00;99.90;;;;;;5092818;28;20115;-80
2023/05/14 06:36:07;;;;;;;5.72;4.03;;;14.00;99.90;;;;;;5093842;28;20622;-79
2023/05/14 06:38:33;;;;;;;6.10;4.05;;;14.10;99.90;;;;;;5093032;28;20062;-79
2023/05/14 06:40:59;;;;;;;6.00;3.28;;;14.10;99.90;;;;;;5092643;28;20505;-79
2023/05/14 06:43:24;;;;;;;4.53;3.55;;;14.10;99.90;;;;;;5094425;28;20031;-79
2023/05/14 06:45:51;;;;;;;5.85;3.70;;;14.20;99.90;;;;;;5092171;28;20028;-78
2023/05/14 06:48:17;;;;;;;5.47;3.80;;;14.20;99.90;;;;;;5093200;28;20020;-79
2023/05/14 06:50:44;;;;;;;4.68;3.47;;;14.20;99.90;;;;;;5092758;28;20469;-79
2023/05/14 06:53:10;;;;;;;6.07;3.97;;;14.20;99.90;;;;;;5094769;28;20020;-79
2023/05/14 06:55:36;;;;;;;5.47;3.72;;;14.30;99.90;;;;;;5093578;28;20479;-79
2023/05/14 06:58:01;;;;;;;4.50;3.30;;;14.30;99.90;;;;;;5092420;28;20498;-78
2023/05/14 07:00:27;;;;;;;4.35;3.30;;;14.40;99.90;;;;;;5092108;28;20023;-79
2023/05/14 07:02:52;;;;;;;6.18;3.53;;;14.40;99.90;;;;;;5091625;28;20024;-79
2023/05/14 07:05:18;;;;;;;4.95;3.75;;;14.50;99.90;;;;;;5093614;28;20058;-79
2023/05/14 07:07:44;;;;;;;4.43;3.38;;;14.50;99.90;;;;;;5092646;28;20450;-79
2023/05/14 07:10:09;;;;;;;5.72;4.15;;;14.50;99.90;;;;;;5091215;28;20048;-79
2023/05/14 07:12:35;;;;;;;5.20;3.42;;;14.60;99.90;;;;;;5097439;28;20024;-79
2023/05/14 07:15:01;;;;;;;5.60;3.45;;;14.60;99.90;;;;;;5091831;28;20020;-79
2023/05/14 07:17:26;;;;;;;5.40;3.60;;;14.60;99.90;;;;;;5093359;28;20089;-79
2023/05/14 07:19:54;;;;;;;6.55;3.78;;;14.60;99.90;;;;;;5092204;28;20415;-79
2023/05/14 07:22:20;;;;;;;7.25;3.92;;;14.70;99.90;;;;;;5092725;28;20028;-79
2023/05/14 07:24:46;;;;;;;4.97;3.78;;;14.70;99.90;;;;;;5096765;28;20073;-79
2023/05/14 07:27:12;;;;;;;5.10;3.45;;;14.70;99.90;;;;;;5091077;28;20028;-79
2023/05/14 07:29:37;;;;;;;5.95;3.60;;;14.70;99.90;;;;;;5091620;28;20123;-78
2023/05/14 07:32:03;;;;;;;5.50;3.60;;;14.70;99.90;;;;;;5090503;28;20028;-79
2023/05/14 07:34:29;;;;;;;5.30;3.78;;;14.70;99.90;;;;;;5091440;28;20512;-79
2023/05/14 07:36:55;;;;;;;6.38;3.80;;;14.60;99.90;;;;;;5093239;28;20055;-78
2023/05/14 07:39:20;;;;;;;5.40;3.67;;;14.70;99.90;;;;;;5093351;28;20102;-80
2023/05/14 07:41:46;;;;;;;3.85;3.20;;;14.70;99.90;;;;;;5091866;28;20173;-79
2023/05/14 07:44:12;;;;;;;6.82;3.50;;;14.70;99.90;;;;;;5092607;28;20082;-79
2023/05/14 07:46:37;;;;;;;4.35;3.50;;;14.80;99.90;;;;;;5091753;28;20036;-79
2023/05/14 07:49:03;;;;;;;7.20;4.47;;;14.80;99.90;;;;;;5091487;28;20024;-80
2023/05/14 07:51:29;;;;;;;6.13;4.07;;;14.80;99.90;;;;;;5092792;28;20059;-79
2023/05/14 07:53:54;;;;;;;6.50;4.80;;;14.80;99.90;;;;;;5091083;28;20031;-79
2023/05/14 07:56:21;;;;;;;7.10;3.78;;;14.80;99.90;;;;;;5092422;28;20032;-78
2023/05/14 07:58:47;;;;;;;5.70;3.38;;;14.80;99.90;;;;;;5091000;28;20057;-79
2023/05/14 08:01:13;;;;;;;4.70;3.47;;;14.90;99.90;;;;;;5092364;28;20046;-79
2023/05/14 08:03:38;;;;;;;4.32;3.40;;;15.00;99.90;;;;;;5091208;28;20024;-79
2023/05/14 08:06:04;;;;;;;6.78;3.70;;;15.00;99.90;;;;;;5089436;28;20469;-79
2023/05/14 08:08:30;;;;;;;5.72;3.40;;;15.00;99.90;;;;;;5092050;28;20057;-80
2023/05/14 08:10:55;;;;;;;4.68;3.25;;;15.00;99.90;;;;;;5090163;28;20111;-80
2023/05/14 08:13:21;;;;;;;5.15;3.70;;;15.10;99.90;;;;;;5092032;28;20032;-79
2023/05/14 08:15:47;;;;;;;5.03;3.88;;;15.10;99.90;;;;;;5090828;28;20035;-80
2023/05/14 08:18:12;;;;;;;4.90;3.50;;;15.20;99.90;;;;;;5090824;28;20026;-79
2023/05/14 08:20:38;;;;;;;4.38;3.50;;;15.20;99.90;;;;;;5090715;28;20028;-80
2023/05/14 08:23:03;;;;;;;5.60;3.70;;;15.20;99.90;;;;;;5097412;28;20423;-80
2023/05/14 08:25:29;;;;;;;6.45;3.65;;;15.20;99.90;;;;;;5097481;28;20098;-82
2023/05/14 08:27:55;;;;;;;7.45;3.85;;;15.30;99.90;;;;;;5090477;28;20036;-83
2023/05/14 08:30:21;;;;;;;4.32;3.30;;;15.30;99.90;;;;;;5091047;28;20024;-79
2023/05/14 08:32:47;;;;;;;5.22;3.67;;;15.30;99.90;;;;;;5091006;28;20061;-79
2023/05/14 08:35:12;;;;;;;6.95;4.00;;;15.40;99.90;;;;;;5090012;28;20409;-85
2023/05/14 08:37:38;;;;;;;5.88;3.65;;;15.40;99.90;;;;;;5084985;28;20040;-78
2023/05/14 08:40:04;;;;;;;4.57;3.40;;;15.40;99.90;;;;;;5091399;28;20074;-82
2023/05/14 08:42:30;;;;;;;3.78;3.33;;;15.30;99.90;;;;;;5092072;28;20122;-90
2023/05/14 08:45:04;;;;;;;5.57;3.38;;;15.30;99.90;;;;;;5092760;28;20028;-92
2023/05/14 08:47:30;;;;;;;5.50;3.10;;;15.40;99.90;;;;;;5095458;28;20091;-82
2023/05/14 08:50:06;;;;;;;4.25;3.28;;;15.40;99.90;;;;;;5095089;28;20430;-83
2023/05/14 08:52:33;;;;;;;5.45;3.45;;;15.50;99.90;;;;;;5095426;28;20028;-82
2023/05/14 08:55:01;;;;;;;5.07;3.33;;;15.50;99.90;;;;;;5094317;28;20020;-80
2023/05/14 08:57:29;;;;;;;5.38;3.67;;;15.50;99.90;;;;;;5095399;28;20038;-82
2023/05/14 08:59:54;;;;;;;9.82;5.45;;;15.50;99.90;;;;;;5093940;28;20035;-85
2023/05/14 09:02:23;;;;;;;5.47;3.97;;;15.60;99.90;;;;;;5094342;28;20405;-83
2023/05/14 09:05:00;;;;;;;4.55;3.53;;;15.60;99.90;;;;;;5094549;28;20046;-85
2023/05/14 09:07:27;;;;;;;5.65;3.70;;;15.60;99.90;;;;;;5088241;28;20047;-84
2023/05/14 09:09:53;;;;;;;6.57;3.50;;;15.60;99.90;;;;;;5092840;28;20126;-85
2023/05/14 09:12:19;;;;;;;5.43;3.80;;;15.60;99.90;;;;;;5094133;28;20020;-81
2023/05/14 09:14:46;;;;;;;5.55;4.10;;;15.60;99.90;;;;;;5094485;28;20035;-81
2023/05/14 09:17:12;;;;;;;5.10;3.70;;;15.60;99.90;;;;;;5094346;28;20043;-82
2023/05/14 09:19:39;;;;;;;5.15;3.17;;;15.70;99.90;;;;;;5096742;28;20028;-81
2023/05/14 09:22:09;;;;;;;5.95;3.63;;;15.70;99.90;;;;;;5095775;28;20107;-81
2023/05/14 09:24:35;;;;;;;4.05;3.50;;;15.70;99.90;;;;;;5108050;28;20035;-81
2023/05/14 09:27:01;;;;;;;5.47;3.70;;;15.80;99.90;;;;;;5094322;28;20036;-85
2023/05/14 09:29:28;;;;;;;4.65;3.72;;;15.80;99.90;;;;;;5099377;28;20032;-85
2023/05/14 09:31:55;;;;;;;5.75;3.60;;;15.90;99.90;;;;;;5098366;28;20032;-87
2023/05/14 09:34:31;;;;;;;6.18;3.65;;;15.80;99.90;;;;;;5096582;28;20030;-84
2023/05/14 09:37:00;;;;;;;5.18;3.65;;;15.90;99.90;;;;;;5095370;28;20032;-85
2023/05/14 09:39:27;;;;;;;5.15;3.80;;;16.00;99.90;;;;;;5094886;28;20039;-85
2023/05/14 09:41:53;;;;;;;4.75;3.72;;;16.10;99.90;;;;;;5093200;28;20464;-87
2023/05/14 09:44:22;;;;;;;4.97;3.63;;;16.20;99.90;;;;;;5095073;28;20495;-86
2023/05/14 09:46:48;;;;;;;4.78;3.50;;;16.40;99.90;;;;;;5095022;28;20060;-84
2023/05/14 09:49:14;;;;;;;6.95;3.97;;;16.60;99.90;;;;;;5094438;28;20028;-88
2023/05/14 09:51:40;;;;;;;6.07;4.03;;;16.70;99.90;;;;;;5095326;28;20420;-87
2023/05/14 09:54:06;;;;;;;5.25;3.88;;;16.70;99.90;;;;;;5107181;28;20031;-87
2023/05/14 09:56:33;;;;;;;6.60;4.10;;;16.80;99.90;;;;;;5096040;28;20057;-86
2023/05/14 09:58:59;;;;;;;5.88;3.55;;;16.90;99.90;;;;;;5095052;28;20123;-88
2023/05/14 10:01:27;;;;;;;6.30;3.80;;;17.10;99.90;;;;;;5094729;28;20065;-87
2023/05/14 10:03:53;;;;;;;5.28;3.58;;;17.30;99.90;;;;;;5093475;28;20477;-80
2023/05/14 10:06:22;;;;;;;5.47;3.42;;;17.40;99.90;;;;;;5093904;28;20036;-92
2023/05/14 10:08:52;;;;;;;3.83;3.13;;;17.50;99.90;;;;;;5092891;28;20031;-82
2023/05/14 10:11:23;;;;;;;4.85;3.33;;;17.50;99.90;;;;;;5092692;28;20041;-83
2023/05/14 10:14:03;;;;;;;3.70;2.85;;;17.60;99.90;;;;;;5093104;28;20031;-79
2023/05/14 10:16:33;;;;;;;5.30;3.30;;;17.70;99.90;;;;;;5092989;28;20464;-81
2023/05/14 10:19:08;;;;;;;4.28;3.22;;;17.80;99.90;;;;;;5093087;28;20020;-85
2023/05/14 10:21:35;;;;;;;6.15;3.88;;;17.80;99.90;;;;;;5094081;28;20030;-86
2023/05/14 10:24:06;;;;;;;3.60;2.83;;;17.90;99.90;;;;;;5093614;28;20032;-82
2023/05/14 10:26:33;;;;;;;5.20;3.92;;;18.00;99.90;;;;;;5092664;28;20060;-82
2023/05/14 10:28:59;;;;;;;5.30;3.30;;;18.00;99.90;;;;;;5093220;28;20078;-86
2023/05/14 10:31:46;;;;;;;4.38;3.10;;;18.10;99.90;;;;;;5094973;28;20024;-87
2023/05/14 10:34:42;;;;;;;5.53;3.63;;;18.20;99.90;;;;;;5077522;28;20114;-88
2023/05/14 10:37:17;;;;;;;4.55;3.20;;;18.30;99.90;;;;;;5084325;28;20055;-90
2023/05/14 10:39:48;;;;;;;5.47;2.90;;;18.30;99.90;;;;;;5094656;28;20055;-86
2023/05/14 10:42:19;;;;;;;3.55;3.10;;;18.30;99.90;;;;;;5093277;28;20047;-86
2023/05/14 10:44:49;;;;;;;4.13;3.05;;;18.40;99.90;;;;;;5092669;28;20035;-87
2023/05/14 10:47:16;;;;;;;4.07;3.13;;;18.50;99.90;;;;;;5094011;28;20064;-85
2023/05/14 10:49:44;;;;;;;4.00;3.30;;;18.60;99.90;;;;;;5092474;28;20077;-79
2023/05/14 10:52:10;;;;;;;5.30;3.67;;;18.60;99.90;;;;;;5091617;28;20024;-85
2023/05/14 10:54:36;;;;;;;3.53;2.80;;;18.60;99.90;;;;;;5104774;28;20024;-83
2023/05/14 10:57:02;;;;;;;3.72;2.80;;;18.70;99.90;;;;;;5092209;28;20051;-80
2023/05/14 10:59:28;;;;;;;3.47;2.95;;;18.90;99.90;;;;;;5092784;28;20031;-89
2023/05/14 11:01:56;;;;;;;3.28;2.53;;;19.00;99.90;;;;;;5092165;28;20032;-87
2023/05/14 11:04:27;;;;;;;5.13;3.03;;;19.10;99.90;;;;;;5093117;28;20107;-86
2023/05/14 11:06:52;;;;;;;5.20;3.08;;;19.10;99.90;;;;;;5091540;28;20040;-86
2023/05/14 11:09:20;;;;;;;4.10;3.17;;;19.20;99.90;;;;;;5091664;28;20177;-85
2023/05/14 11:11:47;;;;;;;3.72;3.05;;;19.20;99.90;;;;;;5093356;28;20362;-90
2023/05/14 11:14:12;;;;;;;6.95;4.93;;;19.20;99.90;;;;;;5093367;28;20031;-85
2023/05/14 11:16:40;;;;;;;3.25;2.95;;;19.20;99.90;;;;;;5092444;28;20040;-83
2023/05/14 11:19:05;;;;;;;4.45;3.33;;;19.30;99.90;;;;;;5092134;28;20494;-84
2023/05/14 11:21:31;;;;;;;4.85;3.33;;;19.30;99.90;;;;;;5093378;28;20111;-82
2023/05/14 11:23:59;;;;;;;5.88;2.90;;;19.30;99.90;;;;;;5091157;28;20039;-85
2023/05/14 11:26:25;;;;;;;3.55;2.97;;;19.30;99.90;;;;;;5091473;28;20032;-86
2023/05/14 11:28:50;;;;;;;5.70;3.25;;;19.40;99.90;;;;;;5092343;28;20024;-85
2023/05/14 11:31:16;;;;;;;3.85;2.92;;;19.50;99.90;;;;;;5092088;28;20036;-86
2023/05/14 11:33:42;;;;;;;4.40;2.78;;;19.70;99.90;;;;;;5091527;28;20032;-85
2023/05/14 11:36:10;;;;;;;4.80;3.03;;;19.70;99.90;;;;;;5091779;28;20036;-84
2023/05/14 11:38:48;;;;;;;6.05;3.10;;;19.70;99.70;;;;;;5092378;28;20122;-85
2023/05/14 11:41:14;;;;;;;4.00;2.53;;;19.70;99.40;;;;;;5092878;28;20135;-85
2023/05/14 11:43:40;;;;;;;4.63;2.72;;;19.70;99.60;;;;;;5091849;28;20023;-84
2023/05/14 11:46:06;;;;;;;3.38;2.50;;;19.70;99.90;;;;;;5091142;28;20035;-87
2023/05/14 11:48:32;;;;;;;4.28;2.78;;;19.90;99.90;;;;;;5093477;28;20016;-87
2023/05/14 11:50:57;;;;;;;3.50;2.50;;;20.00;99.50;;;;;;5091662;28;20111;-85
2023/05/14 11:53:28;;;;;;;4.95;3.78;;;19.90;99.50;;;;;;5101523;28;20030;-85
2023/05/14 11:55:54;;;;;;;3.60;2.53;;;20.00;99.60;;;;;;5093469;28;20032;-89
2023/05/14 11:58:20;;;;;;;4.55;2.65;;;20.10;99.00;;;;;;5092679;28;20034;-86
2023/05/14 12:00:49;;;;;;;3.78;3.00;;;20.10;99.10;;;;;;5092350;28;20064;-85
2023/05/14 12:03:15;;;;;;;5.80;2.60;;;20.10;98.70;;;;;;5091772;28;20028;-84
2023/05/14 12:05:54;;;;;;;4.78;2.65;;;20.20;98.50;;;;;;5092294;28;20031;-85
2023/05/14 12:08:28;;;;;;;4.10;3.03;;;20.30;98.50;;;;;;5092734;28;20024;-85
2023/05/14 12:10:54;;;;;;;5.15;2.75;;;20.50;98.20;;;;;;5092224;28;20032;-85
2023/05/14 12:13:20;;;;;;;3.53;2.40;;;20.70;97.50;;;;;;5092448;28;20058;-85
2023/05/14 12:15:47;;;;;;;4.05;2.95;;;20.70;97.30;;;;;;5091209;28;20092;-83
2023/05/14 12:18:13;;;;;;;4.38;3.05;;;20.70;97.60;;;;;;5091900;28;20020;-85
2023/05/14 12:20:40;;;;;;;3.80;3.15;;;20.90;99.00;;;;;;5092672;28;20066;-84
2023/05/14 12:23:10;;;;;;;4.78;2.30;;;20.90;97.70;;;;;;5102348;28;20051;-84
2023/05/14 12:25:37;;;;;;;4.50;2.67;;;20.70;97.70;;;;;;5113056;28;20184;-83
2023/05/14 12:28:13;;;;;;;4.28;2.70;;;20.80;97.60;;;;;;5094872;28;20028;-82
2023/05/14 12:30:39;;;;;;;4.00;2.70;;;21.00;97.10;;;;;;5095650;28;20039;-82
2023/05/14 12:33:04;;;;;;;3.90;3.00;;;21.10;98.10;;;;;;5095293;28;20024;-84
2023/05/14 12:35:30;;;;;;;4.95;2.90;;;21.00;97.40;;;;;;5095131;28;20024;-81
2023/05/14 12:37:56;;;;;;;3.60;2.85;;;21.10;96.60;;;;;;5095362;28;20035;-84
2023/05/14 12:40:21;;;;;;;4.10;2.88;;;21.20;97.40;;;;;;5099927;28;20040;-84
2023/05/14 12:42:47;;;;;;;3.08;2.60;;;21.30;96.70;;;;;;5096361;28;20028;-81
2023/05/14 12:45:13;;;;;;;4.32;2.85;;;21.20;96.20;;;;;;5096325;28;20117;-82